createdAt,value
2019-04-10T00:00:00.230Z,12.03
2019-04-10T00:02:48.166Z,12.27
2019-04-10T00:05:36.174Z,11.20
2019-04-10T00:08:22.406Z,11.73
2019-04-10T00:11:10.246Z,11.60
2019-04-10T00:13:58.710Z,11.77
2019-04-10T00:16:45.113Z,15.23
2019-04-10T00:19:32.906Z,12.30
2019-04-10T00:22:20.160Z,15.70
2019-04-10T00:25:06.956Z,12.27
2019-04-10T00:31:02.841Z,11.47
2019-04-10T00:33:51.176Z,11.40
2019-04-10T00:36:37.357Z,11.57
2019-04-10T00:39:24.481Z,12.83
2019-04-10T00:42:18.989Z,16.15
2019-04-10T00:45:06.403Z,12.37
2019-04-10T00:50:59.800Z,11.67
2019-04-10T00:53:47.552Z,12.13
2019-04-10T00:59:40.799Z,11.87
2019-04-10T01:02:29.073Z,11.67
2019-04-10T01:08:22.458Z,11.07
2019-04-10T01:11:10.719Z,12.17
2019-04-10T01:14:05.396Z,12.60
2019-04-10T01:16:52.251Z,12.67
2019-04-10T01:19:40.504Z,16.60
2019-04-10T01:22:27.560Z,12.80
2019-04-10T01:31:27.263Z,13.20
2019-04-10T01:34:29.473Z,12.60
2019-04-10T01:37:16.661Z,13.07
2019-04-10T01:40:03.170Z,12.97
2019-04-10T01:49:03.063Z,13.23
2019-04-10T01:51:50.309Z,12.90
2019-04-10T01:57:44.235Z,18.75
2019-04-10T02:00:34.183Z,14.17
2019-04-10T02:06:28.139Z,12.13
2019-04-10T02:12:22.804Z,12.93
2019-04-10T02:15:14.015Z,12.90
2019-04-10T02:18:10.921Z,12.83
2019-04-10T02:20:59.118Z,13.97
2019-04-10T02:23:46.923Z,13.20
2019-04-10T02:29:54.094Z,19.27
2019-04-10T02:32:45.107Z,19.58
2019-04-10T02:38:57.473Z,13.83
2019-04-10T02:47:43.259Z,15.03
2019-04-10T02:50:29.378Z,13.40
2019-04-10T02:56:23.782Z,14.67
2019-04-10T03:02:16.213Z,13.90
2019-04-10T03:05:04.593Z,15.40
2019-04-10T03:07:50.370Z,14.77
2019-04-10T03:10:44.142Z,20.62
2019-04-10T03:13:26.857Z,21.30
2019-04-10T03:16:27.241Z,21.60
2019-04-10T03:19:14.531Z,15.13
2019-04-10T03:22:01.847Z,15.33
2019-04-10T03:24:50.660Z,14.13
2019-04-10T03:27:50.757Z,15.27
2019-04-10T03:30:53.833Z,13.70
2019-04-10T03:33:44.572Z,13.30
2019-04-10T03:36:28.029Z,12.90
2019-04-10T03:42:23.223Z,13.50
2019-04-10T03:45:09.593Z,13.17
2019-04-10T03:51:03.986Z,13.63
2019-04-10T03:53:50.801Z,12.77
2019-04-10T03:56:52.359Z,13.77
2019-04-10T03:59:40.717Z,20.20
2019-04-10T04:02:27.358Z,14.87
2019-04-10T04:05:13.271Z,14.13
2019-04-10T04:08:01.303Z,12.67
2019-04-10T04:11:03.144Z,13.13
2019-04-10T04:13:50.118Z,14.23
2019-04-10T04:16:37.335Z,12.27
2019-04-10T04:19:24.139Z,13.30
2019-04-10T04:22:25.863Z,14.00
2019-04-10T04:25:13.086Z,13.63
2019-04-10T04:28:00.839Z,19.67
2019-04-10T04:40:06.914Z,14.17
2019-04-10T04:42:57.890Z,13.03
2019-04-10T04:45:44.473Z,13.50
2019-04-10T04:51:37.465Z,12.20
2019-04-10T04:54:31.696Z,12.30
2019-04-10T04:57:18.842Z,11.23
2019-04-10T05:00:07.672Z,11.23
2019-04-10T05:03:07.842Z,11.40
2019-04-10T05:12:16.389Z,16.67
2019-04-10T05:15:02.641Z,12.10
2019-04-10T05:20:56.693Z,12.70
2019-04-10T05:23:42.917Z,15.93
2019-04-10T05:26:30.274Z,12.30
2019-04-10T05:29:18.226Z,11.43
2019-04-10T05:32:05.635Z,11.67
2019-04-10T05:34:53.178Z,11.47
2019-04-10T05:37:47.785Z,11.27
2019-04-10T05:40:36.656Z,16.70
2019-04-10T05:43:24.021Z,13.27
2019-04-10T05:46:10.669Z,12.87
2019-04-10T05:55:10.109Z,12.30
2019-04-10T05:57:59.388Z,13.33
2019-04-10T06:00:47.117Z,12.93
2019-04-10T06:06:40.875Z,13.90
2019-04-10T06:09:51.939Z,19.45
2019-04-10T06:12:28.604Z,20.05
2019-04-10T06:15:16.908Z,16.67
2019-04-10T06:18:03.064Z,15.80
2019-04-10T06:20:50.428Z,17.27
2019-04-10T06:26:44.455Z,15.50
2019-04-10T06:29:35.385Z,16.47
2019-04-10T06:32:25.519Z,16.53
2019-04-10T06:35:13.588Z,16.53
2019-04-10T06:37:59.747Z,21.85
2019-04-10T06:40:46.582Z,18.40
2019-04-10T06:46:41.708Z,18.70
2019-04-10T06:49:29.137Z,18.90
2019-04-10T06:52:16.596Z,18.23
2019-04-10T06:55:03.106Z,18.20
2019-04-10T06:57:55.047Z,16.87
2019-04-10T07:00:38.953Z,16.63
2019-04-10T07:03:45.077Z,16.77
2019-04-10T07:06:19.864Z,16.77
2019-04-10T07:09:01.646Z,16.60
2019-04-10T07:14:58.111Z,16.13
2019-04-10T07:17:43.556Z,18.33
2019-04-10T07:20:31.564Z,16.47
2019-04-10T07:23:23.397Z,15.23
2019-04-10T07:26:04.374Z,15.80
2019-04-10T07:28:51.913Z,15.03
2019-04-10T07:31:39.942Z,11.73
2019-04-10T07:34:29.799Z,11.27
2019-04-10T07:37:17.518Z,13.20
2019-04-10T07:40:04.085Z,11.37
2019-04-10T07:42:50.421Z,13.03
2019-04-10T07:45:36.972Z,12.67
2019-04-10T07:48:25.121Z,11.33
2019-04-10T07:51:11.304Z,11.90
2019-04-10T07:53:58.107Z,10.73
2019-04-10T07:56:45.567Z,10.60
2019-04-10T07:59:33.406Z,10.37
2019-04-10T08:02:19.734Z,10.93
2019-04-10T08:05:08.058Z,8.80
2019-04-10T08:07:55.953Z,9.10
2019-04-10T08:10:43.674Z,9.00
2019-04-10T08:13:28.920Z,8.90
2019-04-10T08:16:17.032Z,8.20
2019-04-10T08:19:04.030Z,7.97
2019-04-10T08:21:50.839Z,8.35
2019-04-10T08:24:40.769Z,8.45
2019-04-10T08:27:27.987Z,7.43
2019-04-10T08:30:15.417Z,7.05
2019-04-10T08:33:04.449Z,7.00
2019-04-10T08:35:50.567Z,7.25
2019-04-10T08:38:38.064Z,6.28
2019-04-10T08:41:26.838Z,7.07
2019-04-10T08:44:13.537Z,5.75
2019-04-10T08:47:00.105Z,5.72
2019-04-10T08:49:47.475Z,5.45
2019-04-10T08:55:42.031Z,5.40
2019-04-10T08:58:29.283Z,5.35
2019-04-10T09:01:23.596Z,5.57
2019-04-10T09:04:12.506Z,5.70
2019-04-10T09:07:01.396Z,6.07
2019-04-10T09:09:46.046Z,6.32
2019-04-10T09:12:33.648Z,5.53
2019-04-10T09:15:19.567Z,6.60
2019-04-10T09:18:08.151Z,6.10
2019-04-10T09:20:55.092Z,6.50
2019-04-10T09:23:47.347Z,6.70
2019-04-10T09:26:28.768Z,6.15
2019-04-10T09:29:16.100Z,5.85
2019-04-10T09:32:04.395Z,6.18
2019-04-10T09:34:50.384Z,6.78
2019-04-10T09:37:38.160Z,6.18
2019-04-10T09:40:40.257Z,6.07
2019-04-10T09:43:26.372Z,6.70
2019-04-10T09:46:13.531Z,6.07
2019-04-10T09:49:00.544Z,6.12
2019-04-10T09:51:48.185Z,6.03
2019-04-10T09:54:34.957Z,6.00
2019-04-10T09:57:22.480Z,6.40
2019-04-10T10:00:10.456Z,6.12
2019-04-10T10:02:55.805Z,5.68
2019-04-10T10:05:44.599Z,6.28
2019-04-10T10:08:31.440Z,5.57
2019-04-10T10:11:18.069Z,6.00
2019-04-10T10:14:04.324Z,6.25
2019-04-10T10:16:52.697Z,6.45
2019-04-10T10:19:40.627Z,5.65
2019-04-10T10:22:27.396Z,5.62
2019-04-10T10:25:15.226Z,5.97
2019-04-10T10:28:01.476Z,5.75
2019-04-10T10:30:49.519Z,5.35
2019-04-10T10:33:52.201Z,5.32
2019-04-10T10:36:41.923Z,5.70
2019-04-10T10:39:26.543Z,5.50
2019-04-10T10:42:13.740Z,5.50
2019-04-10T10:48:08.601Z,5.90
2019-04-10T10:50:56.214Z,5.47
2019-04-10T10:53:42.387Z,5.57
2019-04-10T10:56:30.598Z,5.47
2019-04-10T10:59:17.519Z,5.57
2019-04-10T11:02:04.352Z,5.10
2019-04-10T11:04:51.700Z,5.12
2019-04-10T11:07:38.852Z,5.35
2019-04-10T11:10:27.631Z,5.47
2019-04-10T11:13:15.023Z,5.70
2019-04-10T11:16:03.952Z,5.45
2019-04-10T11:18:48.458Z,5.55
2019-04-10T11:21:34.705Z,5.85
2019-04-10T11:24:22.827Z,5.80
2019-04-10T11:30:16.220Z,5.47
2019-04-10T11:33:04.047Z,5.50
2019-04-10T11:35:51.530Z,5.43
2019-04-10T11:38:39.688Z,5.45
2019-04-10T11:41:26.228Z,5.65
2019-04-10T11:44:14.399Z,4.72
2019-04-10T11:47:00.468Z,5.30
2019-04-10T11:49:49.576Z,5.90
2019-04-10T11:55:46.719Z,5.95
2019-04-10T11:58:29.117Z,5.10
2019-04-10T12:01:17.560Z,5.80
2019-04-10T12:04:06.750Z,6.45
2019-04-10T12:06:54.046Z,6.10
2019-04-10T12:12:25.835Z,5.78
2019-04-10T12:15:12.299Z,5.47
2019-04-10T12:17:59.025Z,5.57
2019-04-10T12:20:46.338Z,5.15
2019-04-10T12:26:40.196Z,5.75
2019-04-10T12:32:34.718Z,5.15
2019-04-10T12:35:22.621Z,5.80
2019-04-10T12:41:17.213Z,5.50
2019-04-10T12:44:03.261Z,5.62
2019-04-10T12:46:51.178Z,6.40
2019-04-10T12:49:52.159Z,6.25
2019-04-10T12:52:40.966Z,6.75
2019-04-10T12:55:28.326Z,6.30
2019-04-10T12:58:17.668Z,6.55
2019-04-10T13:01:04.476Z,6.28
2019-04-10T13:03:50.186Z,6.22
2019-04-10T13:06:52.725Z,5.60
2019-04-10T13:09:53.963Z,5.65
2019-04-10T13:12:43.183Z,5.65
2019-04-10T13:15:31.768Z,5.62
2019-04-10T13:18:18.480Z,5.18
2019-04-10T13:21:05.017Z,5.45
2019-04-10T13:23:53.047Z,5.50
2019-04-10T13:26:41.902Z,5.57
2019-04-10T13:29:36.380Z,5.15
2019-04-10T13:32:23.398Z,5.15
2019-04-10T13:35:10.201Z,5.20
2019-04-10T13:37:56.900Z,4.95
2019-04-10T13:40:43.830Z,4.90
2019-04-10T13:43:30.988Z,4.93
2019-04-10T13:46:18.493Z,5.20
2019-04-10T13:49:06.041Z,5.40
2019-04-10T13:51:51.947Z,5.30
2019-04-10T13:54:40.884Z,4.82
2019-04-10T13:57:27.045Z,4.95
2019-04-10T14:00:14.350Z,4.70
2019-04-10T14:03:01.950Z,4.97
2019-04-10T14:05:49.747Z,4.50
2019-04-10T14:09:01.808Z,4.62
2019-04-10T14:14:31.002Z,4.37
2019-04-10T14:17:19.508Z,4.90
2019-04-10T14:20:05.351Z,5.12
2019-04-10T14:23:10.481Z,4.87
2019-04-10T14:29:30.237Z,4.60
2019-04-10T14:32:17.504Z,5.25
2019-04-10T14:35:05.245Z,4.65
2019-04-10T14:37:52.713Z,4.35
2019-04-10T14:40:40.130Z,4.28
2019-04-10T14:43:28.439Z,5.00
2019-04-10T14:46:14.713Z,4.00
2019-04-10T14:49:02.823Z,4.30
2019-04-10T14:51:49.614Z,4.68
2019-04-10T14:54:37.656Z,4.68
2019-04-10T14:57:24.541Z,6.12
2019-04-10T15:00:18.111Z,6.37
2019-04-10T15:03:12.648Z,9.13
2019-04-10T15:06:01.379Z,4.90
2019-04-10T15:08:48.785Z,7.60
2019-04-10T15:11:48.962Z,5.57
2019-04-10T15:14:35.940Z,4.50
2019-04-10T15:17:23.104Z,4.62
2019-04-10T15:20:11.081Z,4.72
2019-04-10T15:22:56.784Z,12.23
2019-04-10T15:25:43.982Z,4.93
2019-04-10T15:28:31.904Z,4.80
2019-04-10T15:31:19.966Z,4.50
2019-04-10T15:34:14.676Z,4.55
2019-04-10T15:37:01.569Z,4.28
2019-04-10T15:39:49.696Z,4.03
2019-04-10T15:42:37.808Z,3.87
2019-04-10T15:45:26.027Z,4.60
2019-04-10T15:48:13.484Z,4.60
2019-04-10T15:51:00.261Z,4.12
2019-04-10T15:53:47.318Z,4.28
2019-04-10T15:56:34.749Z,4.12
2019-04-10T16:02:28.550Z,4.65
2019-04-10T16:05:15.892Z,4.50
2019-04-10T16:08:03.118Z,4.50
2019-04-10T16:11:05.523Z,4.93
2019-04-10T16:14:16.963Z,4.70
2019-04-10T16:16:59.165Z,4.30
2019-04-10T16:19:51.924Z,4.30
2019-04-10T16:22:40.542Z,4.40
2019-04-10T16:25:30.101Z,4.85
2019-04-10T16:28:18.035Z,4.30
2019-04-10T16:31:08.368Z,4.72
2019-04-10T16:33:58.896Z,4.70
2019-04-10T16:36:50.110Z,5.10
2019-04-10T16:42:43.611Z,4.60
2019-04-10T16:45:30.708Z,4.32
2019-04-10T16:48:18.909Z,4.85
2019-04-10T16:51:05.152Z,4.68
2019-04-10T16:53:53.695Z,4.70
2019-04-10T16:56:40.180Z,4.82
2019-04-10T17:02:33.892Z,4.70
2019-04-10T17:05:21.352Z,4.70
2019-04-10T17:14:23.804Z,5.30
2019-04-10T17:17:10.658Z,5.25
2019-04-10T17:19:58.998Z,5.60
2019-04-10T17:22:47.706Z,5.60
2019-04-10T17:25:32.111Z,5.78
2019-04-10T17:28:22.043Z,5.30
2019-04-10T17:31:07.503Z,5.25
2019-04-10T17:33:54.562Z,5.37
2019-04-10T17:36:41.109Z,5.53
2019-04-10T17:39:43.774Z,5.40
2019-04-10T17:42:30.489Z,5.13
2019-04-10T17:45:18.534Z,5.60
2019-04-10T17:48:05.200Z,6.07
2019-04-10T17:50:55.219Z,5.23
2019-04-10T17:53:41.869Z,5.20
2019-04-10T17:56:28.408Z,5.97
2019-04-10T17:59:16.277Z,5.33
2019-04-10T18:05:10.899Z,5.67
2019-04-10T18:07:58.697Z,5.77
2019-04-10T18:10:49.867Z,5.70
2019-04-10T18:13:31.918Z,6.63
2019-04-10T18:16:20.006Z,5.60
2019-04-10T18:19:06.873Z,6.60
2019-04-10T18:21:56.389Z,5.40
2019-04-10T18:24:43.313Z,5.83
2019-04-10T18:30:37.145Z,5.63
2019-04-10T18:33:24.545Z,5.57
2019-04-10T18:36:11.365Z,5.90
2019-04-10T18:38:59.635Z,5.43
2019-04-10T18:41:46.567Z,6.03
2019-04-10T18:44:33.536Z,4.53
2019-04-10T18:53:45.777Z,4.67
2019-04-10T18:56:33.460Z,4.60
2019-04-10T18:59:40.890Z,4.80
2019-04-10T19:02:37.044Z,5.10
2019-04-10T19:05:26.050Z,4.63
2019-04-10T19:08:14.316Z,4.60
2019-04-10T19:11:15.385Z,4.67
2019-04-10T19:14:00.709Z,4.43
2019-04-10T19:16:55.914Z,5.32
2019-04-10T19:20:02.131Z,4.40
2019-04-10T19:25:50.942Z,4.30
2019-04-10T19:31:50.337Z,4.17
2019-04-10T19:34:37.502Z,4.60
2019-04-10T19:37:24.923Z,4.20
2019-04-10T19:40:11.310Z,4.07
2019-04-10T19:49:12.285Z,4.07
2019-04-10T19:52:00.163Z,4.30
2019-04-10T19:54:47.260Z,4.77
2019-04-10T19:57:34.270Z,3.90
2019-04-10T20:00:22.148Z,3.80
2019-04-10T20:03:09.099Z,3.70
2019-04-10T20:05:57.686Z,3.80
2019-04-10T20:08:44.500Z,3.90
2019-04-10T20:11:38.698Z,5.00
2019-04-10T20:14:20.133Z,4.47
2019-04-10T20:17:08.152Z,4.03
2019-04-10T20:19:57.181Z,4.13
2019-04-10T20:22:44.013Z,4.20
2019-04-10T20:25:32.505Z,5.05
2019-04-10T20:28:19.185Z,4.40
2019-04-10T20:31:07.334Z,4.50
2019-04-10T20:33:54.763Z,3.87
2019-04-10T20:36:41.643Z,4.90
2019-04-10T20:42:34.226Z,3.80
2019-04-10T20:45:23.148Z,4.55
2019-04-10T20:48:09.640Z,4.10
2019-04-10T20:50:57.384Z,4.00
2019-04-10T20:53:44.284Z,4.10
2019-04-10T20:56:34.763Z,4.43
2019-04-10T20:59:21.013Z,4.30
2019-04-10T21:02:08.223Z,4.17
2019-04-10T21:08:06.206Z,4.30
2019-04-10T21:10:53.210Z,3.90
2019-04-10T21:13:40.636Z,4.87
2019-04-10T21:16:28.654Z,3.93
2019-04-10T21:19:16.614Z,4.07
2019-04-10T21:22:04.338Z,3.80
2019-04-10T21:27:58.614Z,4.03
2019-04-10T21:30:46.476Z,3.80
2019-04-10T21:36:41.579Z,4.60
2019-04-10T21:39:29.662Z,5.47
2019-04-10T21:42:22.285Z,4.17
2019-04-10T21:48:12.603Z,4.27
2019-04-10T21:51:00.503Z,5.35
2019-04-10T21:53:47.368Z,4.90
2019-04-10T21:56:35.158Z,4.20
2019-04-10T21:59:21.151Z,4.57
2019-04-10T22:02:08.452Z,5.43
2019-04-10T22:04:55.981Z,4.93
2019-04-10T22:07:45.994Z,4.70
2019-04-10T22:10:46.642Z,4.90
2019-04-10T22:13:33.441Z,4.53
2019-04-10T22:16:21.973Z,4.47
2019-04-10T22:19:08.001Z,4.27
2019-04-10T22:21:55.792Z,4.47
2019-04-10T22:24:43.916Z,4.57
2019-04-10T22:30:37.203Z,5.00
2019-04-10T22:33:25.017Z,5.27
2019-04-10T22:36:20.635Z,5.30
2019-04-10T22:39:06.775Z,4.17
2019-04-10T22:42:01.160Z,5.87
2019-04-10T22:44:49.893Z,5.53
2019-04-10T22:47:36.701Z,4.90
2019-04-10T22:50:24.463Z,4.10
2019-04-10T22:53:10.381Z,5.00
2019-04-10T22:56:04.764Z,4.47
2019-04-10T22:58:53.201Z,5.20
2019-04-10T23:01:39.791Z,6.23
2019-04-10T23:04:26.480Z,6.40
2019-04-10T23:07:13.582Z,6.30
2019-04-10T23:10:02.576Z,6.30
2019-04-10T23:12:57.543Z,6.40
2019-04-10T23:21:50.920Z,4.97
2019-04-10T23:24:51.949Z,5.43
2019-04-10T23:27:38.746Z,5.20
2019-04-10T23:30:33.020Z,4.50
2019-04-10T23:33:19.763Z,5.03
2019-04-10T23:36:07.656Z,4.83
2019-04-10T23:38:53.949Z,6.43
2019-04-10T23:41:42.083Z,6.55
2019-04-10T23:44:33.163Z,5.70
2019-04-10T23:47:26.332Z,5.30
2019-04-10T23:50:15.024Z,5.20
2019-04-10T23:53:00.624Z,5.30
2019-04-10T23:56:02.204Z,5.07
2019-04-10T23:58:50.645Z,4.90
